createdAt,value
2023-04-05T00:01:41.702Z,-0.76
2023-04-05T00:05:05.389Z,-0.77
2023-04-05T00:08:24.637Z,-0.80
2023-04-05T00:11:41.484Z,-0.77
2023-04-05T00:14:54.783Z,-0.73
2023-04-05T00:21:10.032Z,-0.72
2023-04-05T00:24:24.493Z,-0.73
2023-04-05T00:27:37.317Z,-0.77
2023-04-05T00:30:50.650Z,-0.77
2023-04-05T00:34:03.609Z,-0.74
2023-04-05T00:37:17.415Z,-0.72
2023-04-05T00:40:30.529Z,-0.74
2023-04-05T00:43:42.925Z,-0.73
2023-04-05T00:46:56.055Z,-0.75
2023-04-05T00:50:09.642Z,-0.77
2023-04-05T00:53:22.328Z,-0.78
2023-04-05T00:56:35.246Z,-0.85
2023-04-05T00:59:47.828Z,-0.87
2023-04-05T01:09:15.275Z,-1.02
2023-04-05T01:12:35.122Z,-1.19
2023-04-05T01:22:32.795Z,-1.17
2023-04-05T01:51:06.933Z,-1.16
2023-04-05T01:54:19.334Z,-1.17
2023-04-05T02:04:20.454Z,-1.33
2023-04-05T02:13:32.278Z,-1.25
2023-04-05T02:16:45.382Z,-1.29
2023-04-05T02:32:08.454Z,-1.47
2023-04-05T02:44:23.929Z,-1.58
2023-04-05T02:47:37.862Z,-1.54
2023-04-05T02:50:53.180Z,-1.52
2023-04-05T02:54:05.054Z,-1.56
2023-04-05T02:57:19.257Z,-1.59
2023-04-05T03:00:33.395Z,-1.61
2023-04-05T03:06:48.556Z,-1.65
2023-04-05T03:10:01.019Z,-1.66
2023-04-05T03:13:13.093Z,-1.74
2023-04-05T03:16:25.653Z,-1.67
2023-04-05T03:19:38.730Z,-1.70
2023-04-05T03:22:55.762Z,-1.70
2023-04-05T03:26:10.452Z,-1.70
2023-04-05T03:29:25.606Z,-1.73
2023-04-05T03:32:38.077Z,-1.78
2023-04-05T03:35:52.434Z,-1.80
2023-04-05T03:39:07.230Z,-1.81
2023-04-05T03:42:19.606Z,-1.80
2023-04-05T03:45:33.777Z,-1.84
2023-04-05T03:48:47.178Z,-1.80
2023-04-05T03:52:01.704Z,-1.79
2023-04-05T03:55:17.089Z,-1.82
2023-04-05T03:58:31.482Z,-1.85
2023-04-05T04:01:45.147Z,-1.89
2023-04-05T04:04:57.903Z,-1.95
2023-04-05T04:08:11.591Z,-1.96
2023-04-05T04:11:25.453Z,-1.94
2023-04-05T04:14:38.489Z,-1.93
2023-04-05T04:18:04.105Z,-1.89
2023-04-05T04:21:19.254Z,-1.89
2023-04-05T04:24:34.182Z,-1.88
2023-04-05T04:27:50.825Z,-1.87
2023-04-05T04:31:21.645Z,-1.87
2023-04-05T04:34:41.871Z,-1.84
2023-04-05T04:37:58.763Z,-1.78
2023-04-05T04:41:20.363Z,-1.79
2023-04-05T04:44:37.379Z,-1.74
2023-04-05T04:47:54.142Z,-1.69
2023-04-05T04:51:10.482Z,-1.65
2023-04-05T04:54:23.571Z,-1.58
2023-04-05T04:57:35.516Z,-1.47
2023-04-05T05:00:48.542Z,-1.36
2023-04-05T05:04:00.656Z,-1.29
2023-04-05T05:07:15.931Z,-1.21
2023-04-05T05:10:28.167Z,-1.08
2023-04-05T05:13:42.137Z,-0.97
2023-04-05T05:29:32.884Z,-0.10
2023-04-05T05:35:45.178Z,0.39
2023-04-05T05:38:57.276Z,0.67
2023-04-05T05:45:13.220Z,0.89
2023-04-05T05:57:25.909Z,1.22
2023-04-05T06:00:39.494Z,1.48
2023-04-05T06:03:52.944Z,1.63
2023-04-05T06:07:06.288Z,2.37
2023-04-05T06:10:19.966Z,2.87
2023-04-05T06:13:32.283Z,3.40
2023-04-05T06:16:44.391Z,3.90
2023-04-05T06:19:56.584Z,4.27
2023-04-05T06:26:09.024Z,3.96
2023-04-05T06:29:21.304Z,3.41
2023-04-05T06:32:33.295Z,3.82
2023-04-05T06:35:45.922Z,4.51
2023-04-05T06:38:58.363Z,4.71
2023-04-05T06:42:10.491Z,5.25
2023-04-05T06:45:24.618Z,5.66
2023-04-05T06:48:38.686Z,5.75
2023-04-05T06:51:50.907Z,5.66
2023-04-05T06:55:03.069Z,6.22
2023-04-05T06:58:15.078Z,6.28
2023-04-05T07:01:27.693Z,6.57
2023-04-05T07:04:41.463Z,7.12
2023-04-05T07:07:53.650Z,7.22
2023-04-05T07:11:06.534Z,8.19
2023-04-05T07:14:18.685Z,8.08
2023-04-05T07:17:30.998Z,7.81
2023-04-05T07:20:43.504Z,8.39
2023-04-05T07:23:58.795Z,8.61
2023-04-05T07:27:11.057Z,9.52
2023-04-05T07:30:23.604Z,9.54
2023-04-05T07:33:36.682Z,9.49
2023-04-05T07:36:50.556Z,9.39
2023-04-05T07:40:04.457Z,9.12
2023-04-05T07:43:16.704Z,10.00
2023-04-05T07:46:28.752Z,9.59
2023-04-05T07:49:41.899Z,9.56
2023-04-05T07:52:54.093Z,9.21
2023-04-05T07:56:12.285Z,9.40
2023-04-05T07:59:24.427Z,9.87
2023-04-05T08:02:38.004Z,9.94
2023-04-05T08:05:50.455Z,10.51
2023-04-05T08:09:04.593Z,10.23
2023-04-05T08:12:17.048Z,9.78
2023-04-05T08:15:29.075Z,8.40
2023-04-05T08:18:42.662Z,7.25
2023-04-05T08:21:54.744Z,7.17
2023-04-05T08:25:07.020Z,7.11
2023-04-05T08:28:19.550Z,7.14
2023-04-05T08:31:31.865Z,7.42
2023-04-05T08:34:44.179Z,7.84
2023-04-05T08:37:56.273Z,7.10
2023-04-05T08:41:16.863Z,7.86
2023-04-05T08:44:31.527Z,8.74
2023-04-05T08:47:44.591Z,9.25
2023-04-05T08:51:01.669Z,8.51
2023-04-05T08:54:15.365Z,8.32
2023-04-05T08:57:31.511Z,7.14
2023-04-05T09:00:44.241Z,7.35
2023-04-05T09:03:58.522Z,6.74
2023-04-05T09:07:12.792Z,6.03
2023-04-05T09:10:27.515Z,6.18
2023-04-05T09:13:39.964Z,5.37
2023-04-05T09:16:52.519Z,5.34
2023-04-05T09:20:04.705Z,5.45
2023-04-05T09:23:16.721Z,5.74
2023-04-05T09:26:32.386Z,5.38
2023-04-05T09:29:47.612Z,5.17
2023-04-05T09:33:01.580Z,4.83
2023-04-05T09:36:14.713Z,4.87
2023-04-05T09:39:33.950Z,5.05
2023-04-05T09:42:54.259Z,4.98
2023-04-05T09:46:06.366Z,4.80
2023-04-05T09:49:18.724Z,4.80
2023-04-05T09:52:33.026Z,4.85
2023-04-05T09:55:45.758Z,4.94
2023-04-05T09:59:01.506Z,4.94
2023-04-05T10:02:14.166Z,6.31
2023-04-05T10:05:29.355Z,5.97
2023-04-05T10:08:41.534Z,5.77
2023-04-05T10:11:53.929Z,5.98
2023-04-05T10:15:06.409Z,6.21
2023-04-05T10:18:22.815Z,6.14
2023-04-05T10:21:40.200Z,7.58
2023-04-05T10:24:56.655Z,7.12
2023-04-05T10:28:13.909Z,7.22
2023-04-05T10:31:36.905Z,9.19
2023-04-05T10:34:49.717Z,9.79
2023-04-05T10:38:13.896Z,7.86
2023-04-05T10:41:26.120Z,7.24
2023-04-05T10:44:42.784Z,6.73
2023-04-05T10:48:02.410Z,6.21
2023-04-05T10:51:16.174Z,6.02
2023-04-05T10:54:28.837Z,5.78
2023-04-05T10:57:42.562Z,5.95
2023-04-05T11:00:55.897Z,5.97
2023-04-05T11:04:19.111Z,5.99
2023-04-05T11:07:31.669Z,5.90
2023-04-05T11:10:45.671Z,5.69
2023-04-05T11:13:59.880Z,6.23
2023-04-05T11:17:22.527Z,6.46
2023-04-05T11:20:45.897Z,7.20
2023-04-05T11:24:15.633Z,7.03
2023-04-05T11:27:32.768Z,6.12
2023-04-05T11:30:57.304Z,5.49
2023-04-05T11:34:14.264Z,5.51
2023-04-05T11:37:28.508Z,5.35
2023-04-05T11:40:43.764Z,5.40
2023-04-05T11:43:59.578Z,5.51
2023-04-05T11:47:12.997Z,5.85
2023-04-05T11:50:25.257Z,5.97
2023-04-05T11:53:37.333Z,6.33
2023-04-05T11:56:56.497Z,6.48
2023-04-05T12:00:09.315Z,7.33
2023-04-05T12:03:24.136Z,7.34
2023-04-05T12:06:36.310Z,7.75
2023-04-05T12:10:16.192Z,8.15
2023-04-05T12:13:39.010Z,8.31
2023-04-05T12:16:58.878Z,8.16
2023-04-05T12:20:13.514Z,8.72
2023-04-05T12:23:28.555Z,7.93
2023-04-05T12:26:42.629Z,7.30
2023-04-05T12:30:15.186Z,6.99
2023-04-05T12:36:57.017Z,6.64
2023-04-05T12:40:13.416Z,6.63
2023-04-05T12:43:25.860Z,7.25
2023-04-05T12:46:49.268Z,7.28
2023-04-05T12:50:02.834Z,7.98
2023-04-05T12:53:17.930Z,8.24
2023-04-05T12:56:30.367Z,8.21
2023-04-05T12:59:42.805Z,7.73
2023-04-05T13:02:59.908Z,7.41
2023-04-05T13:06:10.676Z,7.20
2023-04-05T13:09:22.790Z,6.88
2023-04-05T13:12:35.192Z,7.47
2023-04-05T13:15:48.708Z,7.37
2023-04-05T13:19:01.551Z,6.87
2023-04-05T13:22:13.672Z,6.62
2023-04-05T13:25:25.821Z,6.35
2023-04-05T13:28:38.485Z,6.39
2023-04-05T13:31:50.782Z,6.26
2023-04-05T13:35:02.941Z,6.19
2023-04-05T13:38:15.716Z,6.17
2023-04-05T13:41:27.910Z,6.05
2023-04-05T13:44:39.888Z,6.10
2023-04-05T13:47:52.155Z,6.19
2023-04-05T13:51:04.378Z,6.27
2023-04-05T13:54:16.528Z,6.10
2023-04-05T13:57:28.628Z,6.23
2023-04-05T14:00:40.957Z,6.09
2023-04-05T14:03:53.281Z,6.26
2023-04-05T14:07:06.549Z,6.37
2023-04-05T14:10:21.304Z,6.23
2023-04-05T14:13:33.393Z,6.37
2023-04-05T14:16:46.045Z,6.75
2023-04-05T14:19:58.215Z,6.63
2023-04-05T14:23:10.562Z,6.72
2023-04-05T14:26:22.817Z,6.51
2023-04-05T14:29:35.187Z,6.37
2023-04-05T14:32:47.437Z,5.84
2023-04-05T14:36:00.008Z,5.88
2023-04-05T14:39:12.835Z,5.98
2023-04-05T14:42:34.042Z,6.00
2023-04-05T14:45:39.944Z,5.97
2023-04-05T14:48:52.299Z,5.93
2023-04-05T14:52:04.870Z,6.00
2023-04-05T14:55:17.623Z,5.92
2023-04-05T14:58:29.623Z,5.79
2023-04-05T15:01:44.089Z,5.67
2023-04-05T15:04:58.354Z,5.60
2023-04-05T15:08:10.589Z,5.47
2023-04-05T15:11:22.621Z,5.29
2023-04-05T15:14:35.381Z,5.26
2023-04-05T15:17:47.485Z,5.23
2023-04-05T15:20:59.815Z,5.15
2023-04-05T15:24:12.295Z,5.35
2023-04-05T15:27:24.308Z,5.43
2023-04-05T15:30:36.613Z,5.54
2023-04-05T15:33:49.038Z,5.54
2023-04-05T15:37:01.739Z,5.54
2023-04-05T15:40:16.312Z,5.56
2023-04-05T15:43:28.479Z,5.71
2023-04-05T15:46:40.537Z,5.81
2023-04-05T15:49:52.940Z,5.83
2023-04-05T15:53:05.254Z,5.65
2023-04-05T15:56:17.327Z,5.38
2023-04-05T15:59:29.444Z,5.36
2023-04-05T16:02:42.538Z,5.35
2023-04-05T16:05:54.789Z,5.23
2023-04-05T16:09:07.057Z,5.22
2023-04-05T16:12:19.842Z,5.17
2023-04-05T16:15:33.361Z,5.18
2023-04-05T16:18:45.537Z,5.13
2023-04-05T16:21:58.123Z,5.08
2023-04-05T16:25:11.081Z,5.04
2023-04-05T16:28:23.200Z,5.02
2023-04-05T16:31:35.961Z,5.01
2023-04-05T16:34:48.074Z,5.04
2023-04-05T16:38:00.344Z,4.91
2023-04-05T16:41:12.386Z,4.84
2023-04-05T16:44:24.506Z,4.75
2023-04-05T16:47:36.454Z,4.72
2023-04-05T16:50:48.535Z,4.70
2023-04-05T16:54:01.755Z,4.71
2023-04-05T16:57:13.939Z,4.68
2023-04-05T17:00:27.304Z,4.65
2023-04-05T17:03:39.401Z,4.61
2023-04-05T17:06:51.736Z,4.61
2023-04-05T17:10:04.610Z,4.59
2023-04-05T17:13:18.289Z,4.57
2023-04-05T17:16:30.381Z,4.48
2023-04-05T17:19:42.437Z,4.43
2023-04-05T17:22:55.044Z,4.30
2023-04-05T17:26:08.241Z,4.33
2023-04-05T17:29:21.173Z,4.32
2023-04-05T17:32:34.956Z,4.29
2023-04-05T17:35:47.960Z,4.27
2023-04-05T17:39:00.545Z,4.27
2023-04-05T17:42:12.801Z,4.27
2023-04-05T17:45:25.049Z,4.26
2023-04-05T17:48:37.164Z,4.22
2023-04-05T17:51:49.297Z,4.15
2023-04-05T17:55:01.476Z,4.17
2023-04-05T17:58:13.475Z,4.19
2023-04-05T18:01:25.557Z,4.20
2023-04-05T18:04:37.602Z,4.16
2023-04-05T18:07:49.612Z,4.08
2023-04-05T18:11:06.559Z,4.02
2023-04-05T18:14:21.047Z,4.00
2023-04-05T18:17:33.812Z,4.05
2023-04-05T18:20:46.017Z,4.11
2023-04-05T18:23:58.164Z,4.11
2023-04-05T18:30:23.432Z,4.06
2023-04-05T18:33:37.540Z,4.05
2023-04-05T18:36:49.554Z,4.07
2023-04-05T18:40:01.893Z,4.09
2023-04-05T18:43:14.172Z,4.13
2023-04-05T18:46:28.314Z,4.11
2023-04-05T18:49:41.239Z,4.15
2023-04-05T18:52:53.307Z,4.21
2023-04-05T18:56:05.881Z,4.22
2023-04-05T18:59:18.057Z,4.15
2023-04-05T19:02:30.190Z,4.06
2023-04-05T19:05:42.372Z,4.01
2023-04-05T19:08:54.472Z,4.00
2023-04-05T19:12:06.515Z,4.00
2023-04-05T19:15:19.962Z,3.98
2023-04-05T19:18:32.276Z,4.02
2023-04-05T19:21:44.550Z,4.06
2023-04-05T19:24:56.609Z,4.08
2023-04-05T19:28:09.094Z,4.05
2023-04-05T19:31:21.050Z,4.07
2023-04-05T19:34:33.657Z,4.03
2023-04-05T19:37:46.385Z,4.03
2023-04-05T19:40:58.759Z,4.02
2023-04-05T19:44:16.702Z,4.02
2023-04-05T19:47:31.834Z,3.91
2023-04-05T19:50:58.331Z,3.88
2023-04-05T19:54:15.641Z,3.90
2023-04-05T19:57:26.198Z,3.90
2023-04-05T20:00:42.060Z,3.90
2023-04-05T20:03:54.529Z,3.86
2023-04-05T20:07:06.805Z,3.85
2023-04-05T20:10:23.543Z,3.90
2023-04-05T20:13:36.077Z,3.92
2023-04-05T20:16:51.942Z,3.96
2023-04-05T20:20:07.499Z,3.97
2023-04-05T20:23:23.547Z,3.92
2023-04-05T20:26:38.339Z,3.91
2023-04-05T20:29:52.714Z,3.90
2023-04-05T20:33:05.457Z,3.91
2023-04-05T20:36:21.103Z,3.84
2023-04-05T20:39:34.378Z,3.83
2023-04-05T20:42:46.818Z,3.81
2023-04-05T20:45:59.858Z,3.75
2023-04-05T20:49:12.189Z,3.67
2023-04-05T20:52:26.673Z,3.63
2023-04-05T20:55:39.538Z,3.53
2023-04-05T20:58:51.726Z,3.47
2023-04-05T21:02:04.615Z,3.45
2023-04-05T21:05:17.905Z,3.39
2023-04-05T21:17:30.555Z,3.10
2023-04-05T21:20:45.085Z,3.07
2023-04-05T21:29:57.337Z,2.88
2023-04-05T21:39:40.712Z,2.77
2023-04-05T21:42:53.371Z,2.75
2023-04-05T21:46:05.684Z,2.71
2023-04-05T21:49:18.138Z,2.70
2023-04-05T21:52:30.993Z,2.70
2023-04-05T21:55:43.543Z,2.67
2023-04-05T21:58:55.703Z,2.70
2023-04-05T22:02:07.974Z,2.65
2023-04-05T22:05:34.024Z,2.65
2023-04-05T22:08:36.013Z,2.72
2023-04-05T22:11:49.314Z,2.63
2023-04-05T22:15:02.215Z,2.54
2023-04-05T22:18:14.374Z,2.49
2023-04-05T22:46:15.205Z,2.14
2023-04-05T23:36:23.137Z,1.01
2023-04-05T23:39:35.146Z,0.96
2023-04-05T23:42:47.341Z,0.83
2023-04-05T23:45:59.606Z,0.76
